createdAt,value
2022-09-16T00:00:02.126Z,12.28
2022-09-16T00:02:47.793Z,12.19
2022-09-16T00:05:33.166Z,12.16
2022-09-16T00:08:19.640Z,12.19
2022-09-16T00:11:05.129Z,12.08
2022-09-16T00:13:50.711Z,12.13
2022-09-16T00:16:35.569Z,12.20
2022-09-16T00:19:20.836Z,12.16
2022-09-16T00:22:06.586Z,11.97
2022-09-16T00:24:51.967Z,11.93
2022-09-16T00:27:37.643Z,11.97
2022-09-16T00:30:22.626Z,11.86
2022-09-16T00:33:08.129Z,11.87
2022-09-16T00:35:53.088Z,11.93
2022-09-16T00:38:39.324Z,11.81
2022-09-16T00:41:28.127Z,11.84
2022-09-16T00:44:50.778Z,11.81
2022-09-16T00:48:04.854Z,11.92
2022-09-16T00:50:54.264Z,11.92
2022-09-16T00:53:45.085Z,11.89
2022-09-16T00:56:34.523Z,11.91
2022-09-16T00:59:25.965Z,11.87
2022-09-16T01:02:15.960Z,11.90
2022-09-16T01:05:06.803Z,11.83
2022-09-16T01:07:54.401Z,11.92
2022-09-16T01:10:42.585Z,12.00
2022-09-16T01:13:28.172Z,11.98
2022-09-16T01:16:25.493Z,12.06
2022-09-16T01:19:19.879Z,12.16
2022-09-16T01:22:14.216Z,11.96
2022-09-16T01:25:05.771Z,11.99
2022-09-16T01:28:15.112Z,11.94
2022-09-16T01:31:23.513Z,11.90
2022-09-16T01:34:21.734Z,11.85
2022-09-16T01:37:22.562Z,11.88
2022-09-16T01:40:10.667Z,11.97
2022-09-16T01:43:05.276Z,11.95
2022-09-16T01:45:54.075Z,11.95
2022-09-16T01:48:53.749Z,11.74
2022-09-16T01:52:07.258Z,11.83
2022-09-16T01:55:04.851Z,11.89
2022-09-16T01:58:01.010Z,11.94
2022-09-16T02:00:49.924Z,11.89
2022-09-16T02:03:39.234Z,11.81
2022-09-16T02:06:27.326Z,11.76
2022-09-16T02:09:28.539Z,11.78
2022-09-16T02:12:20.722Z,11.84
2022-09-16T02:15:10.646Z,11.80
2022-09-16T02:18:11.767Z,11.67
2022-09-16T02:21:00.966Z,11.63
2022-09-16T02:23:51.252Z,11.64
2022-09-16T02:26:40.431Z,11.60
2022-09-16T02:29:28.752Z,11.60
2022-09-16T02:32:15.103Z,11.65
2022-09-16T02:35:02.581Z,11.72
2022-09-16T02:38:21.288Z,11.73
2022-09-16T02:41:06.430Z,11.66
2022-09-16T02:43:51.849Z,11.65
2022-09-16T02:46:57.261Z,11.57
2022-09-16T02:49:53.199Z,11.66
2022-09-16T02:53:02.415Z,11.65
2022-09-16T02:55:59.920Z,11.65
2022-09-16T02:58:45.080Z,11.67
2022-09-16T03:01:33.082Z,11.64
2022-09-16T03:04:20.343Z,11.67
2022-09-16T03:07:07.937Z,11.74
2022-09-16T03:09:53.714Z,11.67
2022-09-16T03:13:21.901Z,11.69
2022-09-16T03:16:21.948Z,11.72
2022-09-16T03:19:41.378Z,11.63
2022-09-16T03:22:41.702Z,11.63
2022-09-16T03:25:33.191Z,11.58
2022-09-16T03:28:23.566Z,11.54
2022-09-16T03:31:26.503Z,11.58
2022-09-16T03:34:17.726Z,11.43
2022-09-16T03:37:07.433Z,11.38
2022-09-16T03:39:57.868Z,11.37
2022-09-16T03:42:44.080Z,11.37
2022-09-16T03:45:29.311Z,11.18
2022-09-16T03:48:14.766Z,11.26
2022-09-16T03:51:00.208Z,11.36
2022-09-16T03:53:45.055Z,11.39
2022-09-16T03:56:29.901Z,11.28
2022-09-16T03:59:14.733Z,11.29
2022-09-16T04:01:59.824Z,11.35
2022-09-16T04:04:45.373Z,11.37
2022-09-16T04:07:32.381Z,11.47
2022-09-16T04:10:18.793Z,11.36
2022-09-16T04:13:03.720Z,11.29
2022-09-16T04:15:48.623Z,11.43
2022-09-16T04:18:34.764Z,11.36
2022-09-16T04:21:19.995Z,11.28
2022-09-16T04:24:09.464Z,11.34
2022-09-16T04:26:57.351Z,11.28
2022-09-16T04:29:42.659Z,11.37
2022-09-16T04:32:27.614Z,11.36
2022-09-16T04:35:12.409Z,11.41
2022-09-16T04:37:57.536Z,11.45
2022-09-16T04:40:43.126Z,11.38
2022-09-16T04:43:28.438Z,11.35
2022-09-16T04:46:13.976Z,11.42
2022-09-16T04:49:00.518Z,11.50
2022-09-16T04:51:45.714Z,11.51
2022-09-16T04:54:30.635Z,11.57
2022-09-16T04:57:15.522Z,11.60
2022-09-16T05:00:00.767Z,11.54
2022-09-16T05:02:45.772Z,11.49
2022-09-16T05:05:30.729Z,11.50
2022-09-16T05:08:15.934Z,11.36
2022-09-16T05:11:12.497Z,11.22
2022-09-16T05:14:05.938Z,11.16
2022-09-16T05:16:50.796Z,11.14
2022-09-16T05:19:35.723Z,11.16
2022-09-16T05:22:20.762Z,11.19
2022-09-16T05:25:06.109Z,11.12
2022-09-16T05:27:51.071Z,11.06
2022-09-16T05:30:36.083Z,11.00
2022-09-16T05:33:21.616Z,11.04
2022-09-16T05:36:11.886Z,11.12
2022-09-16T05:39:20.875Z,11.13
2022-09-16T05:42:02.127Z,11.28
2022-09-16T05:44:47.148Z,11.33
2022-09-16T05:47:31.973Z,11.18
2022-09-16T05:50:17.524Z,11.31
2022-09-16T05:53:02.687Z,11.33
2022-09-16T05:56:32.397Z,11.35
2022-09-16T05:59:17.990Z,11.49
2022-09-16T06:02:03.555Z,11.33
2022-09-16T06:04:48.938Z,11.35
2022-09-16T06:07:34.242Z,11.36
2022-09-16T06:10:19.179Z,11.48
2022-09-16T06:13:04.061Z,11.53
2022-09-16T06:15:50.917Z,11.54
2022-09-16T06:18:37.410Z,11.45
2022-09-16T06:21:23.391Z,11.45
2022-09-16T06:24:08.978Z,11.55
2022-09-16T06:26:54.477Z,11.56
2022-09-16T06:29:39.361Z,11.65
2022-09-16T06:32:24.839Z,11.70
2022-09-16T06:35:10.121Z,11.72
2022-09-16T06:37:55.326Z,11.74
2022-09-16T06:40:40.436Z,11.95
2022-09-16T06:43:26.290Z,11.82
2022-09-16T06:46:14.388Z,11.86
2022-09-16T06:49:05.070Z,11.92
2022-09-16T06:51:51.154Z,11.84
2022-09-16T06:54:36.123Z,11.95
2022-09-16T06:57:21.308Z,12.06
2022-09-16T07:00:06.794Z,12.16
2022-09-16T07:02:51.876Z,12.29
2022-09-16T07:05:36.986Z,12.27
2022-09-16T07:08:21.932Z,12.34
2022-09-16T07:11:15.397Z,12.40
2022-09-16T07:14:00.861Z,13.14
2022-09-16T07:16:45.947Z,12.85
2022-09-16T07:19:31.334Z,13.27
2022-09-16T07:22:16.205Z,12.99
2022-09-16T07:25:01.498Z,12.96
2022-09-16T07:27:46.691Z,12.78
2022-09-16T07:30:31.613Z,12.37
2022-09-16T07:33:16.564Z,12.39
2022-09-16T07:36:02.208Z,12.59
2022-09-16T07:38:48.108Z,12.55
2022-09-16T07:41:36.292Z,12.94
2022-09-16T07:44:21.620Z,13.12
2022-09-16T07:47:06.658Z,12.83
2022-09-16T07:49:51.739Z,12.61
2022-09-16T07:52:37.036Z,12.72
2022-09-16T07:55:22.432Z,12.87
2022-09-16T07:58:07.457Z,13.63
2022-09-16T08:00:52.697Z,14.02
2022-09-16T08:03:39.663Z,13.75
2022-09-16T08:06:27.857Z,13.96
2022-09-16T08:09:38.139Z,14.49
2022-09-16T08:12:18.100Z,14.52
2022-09-16T08:15:03.400Z,15.02
2022-09-16T08:17:48.378Z,14.48
2022-09-16T08:20:33.301Z,14.29
2022-09-16T08:23:18.178Z,14.05
2022-09-16T08:26:04.688Z,14.20
2022-09-16T08:29:07.873Z,14.06
2022-09-16T08:31:53.697Z,14.81
2022-09-16T08:34:39.398Z,14.37
2022-09-16T08:37:24.779Z,14.13
2022-09-16T08:40:15.880Z,14.65
2022-09-16T08:43:29.221Z,14.47
2022-09-16T08:46:14.138Z,14.16
2022-09-16T08:49:03.315Z,14.89
2022-09-16T08:51:49.522Z,15.15
2022-09-16T08:54:42.258Z,15.75
2022-09-16T08:57:30.399Z,15.88
2022-09-16T09:00:18.673Z,15.76
2022-09-16T09:03:33.829Z,15.35
2022-09-16T09:06:40.295Z,15.70
2022-09-16T09:09:28.742Z,16.13
2022-09-16T09:12:39.049Z,16.32
2022-09-16T09:15:35.318Z,15.66
2022-09-16T09:18:34.227Z,15.44
2022-09-16T09:21:36.057Z,14.91
2022-09-16T09:25:10.429Z,14.77
2022-09-16T09:28:04.387Z,14.89
2022-09-16T09:31:18.340Z,14.82
2022-09-16T09:34:15.995Z,14.76
2022-09-16T09:37:25.885Z,14.69
2022-09-16T09:40:48.141Z,14.74
2022-09-16T09:46:35.478Z,14.68
2022-09-16T09:49:33.047Z,14.75
2022-09-16T09:52:25.977Z,14.61
2022-09-16T09:55:23.020Z,14.77
2022-09-16T09:58:21.498Z,15.04
2022-09-16T10:01:07.049Z,15.33
2022-09-16T10:03:53.456Z,15.40
2022-09-16T10:06:38.587Z,15.54
2022-09-16T10:09:24.730Z,15.36
2022-09-16T10:12:09.911Z,15.28
2022-09-16T10:14:55.235Z,15.44
2022-09-16T10:17:49.296Z,15.78
2022-09-16T10:20:37.938Z,15.37
2022-09-16T10:23:29.726Z,15.74
2022-09-16T10:26:28.906Z,15.50
2022-09-16T10:29:17.692Z,15.35
2022-09-16T10:32:07.768Z,15.51
2022-09-16T10:34:53.097Z,15.91
2022-09-16T10:37:39.917Z,15.91
2022-09-16T10:40:26.246Z,15.56
2022-09-16T10:43:16.072Z,15.74
2022-09-16T10:46:01.357Z,15.68
2022-09-16T10:48:48.738Z,15.61
2022-09-16T10:51:33.788Z,15.56
2022-09-16T10:54:25.924Z,15.62
2022-09-16T10:57:29.573Z,15.78
2022-09-16T11:00:21.254Z,15.92
2022-09-16T11:03:31.635Z,15.96
2022-09-16T11:06:22.556Z,16.01
2022-09-16T11:09:44.880Z,15.61
2022-09-16T11:12:42.054Z,16.03
2022-09-16T11:15:27.518Z,16.18
2022-09-16T11:18:31.077Z,16.19
2022-09-16T11:21:41.142Z,15.78
2022-09-16T11:24:46.994Z,15.89
2022-09-16T11:28:01.578Z,16.22
2022-09-16T11:31:03.667Z,16.21
2022-09-16T11:34:10.477Z,16.32
2022-09-16T11:36:55.377Z,16.54
2022-09-16T11:39:40.195Z,16.51
2022-09-16T11:42:39.504Z,16.74
2022-09-16T11:45:35.025Z,16.72
2022-09-16T11:48:38.036Z,17.06
2022-09-16T11:51:54.407Z,16.87
2022-09-16T11:55:19.957Z,17.12
2022-09-16T11:58:31.859Z,17.36
2022-09-16T12:01:53.791Z,16.53
2022-09-16T12:04:53.245Z,17.07
2022-09-16T12:08:00.396Z,16.73
2022-09-16T12:10:49.861Z,17.21
2022-09-16T12:13:40.334Z,17.55
2022-09-16T12:16:39.139Z,17.20
2022-09-16T12:19:37.726Z,16.68
2022-09-16T12:22:28.617Z,16.82
2022-09-16T12:25:21.456Z,15.56
2022-09-16T12:28:39.522Z,14.98
2022-09-16T12:31:50.475Z,14.55
2022-09-16T12:34:44.065Z,13.97
2022-09-16T12:37:36.402Z,13.81
2022-09-16T12:40:27.185Z,13.40
2022-09-16T12:43:51.206Z,13.01
2022-09-16T12:47:08.370Z,12.68
2022-09-16T12:50:08.778Z,14.18
2022-09-16T12:53:12.971Z,14.37
2022-09-16T12:56:26.177Z,14.94
2022-09-16T12:59:35.714Z,16.47
2022-09-16T13:02:25.054Z,17.21
2022-09-16T13:05:20.004Z,17.82
2022-09-16T13:08:17.577Z,18.20
2022-09-16T13:12:09.548Z,18.54
2022-09-16T13:14:27.673Z,18.87
2022-09-16T13:17:13.144Z,19.03
2022-09-16T13:20:05.401Z,18.37
2022-09-16T13:23:10.994Z,15.84
2022-09-16T13:26:04.436Z,14.89
2022-09-16T13:28:49.879Z,14.75
2022-09-16T13:31:47.513Z,14.44
2022-09-16T13:34:33.139Z,14.86
2022-09-16T13:37:26.018Z,15.28
2022-09-16T13:40:25.077Z,15.68
2022-09-16T13:43:10.683Z,15.83
2022-09-16T13:46:07.036Z,15.85
2022-09-16T13:49:05.323Z,15.63
2022-09-16T13:51:52.061Z,15.71
2022-09-16T13:55:06.171Z,15.87
2022-09-16T13:58:17.637Z,15.99
2022-09-16T14:01:17.666Z,16.18
2022-09-16T14:04:36.235Z,16.10
2022-09-16T14:07:33.442Z,16.05
2022-09-16T14:10:28.879Z,16.03
2022-09-16T14:13:17.342Z,15.74
2022-09-16T14:16:02.517Z,15.61
2022-09-16T14:19:08.320Z,15.55
2022-09-16T14:22:12.947Z,15.24
2022-09-16T14:25:06.687Z,15.42
2022-09-16T14:28:28.348Z,15.48
2022-09-16T14:31:19.849Z,15.68
2022-09-16T14:34:07.798Z,15.75
2022-09-16T14:36:53.369Z,15.65
2022-09-16T14:39:41.803Z,15.84
2022-09-16T14:42:26.748Z,15.95
2022-09-16T14:45:16.419Z,16.24
2022-09-16T14:48:05.964Z,16.06
2022-09-16T14:50:51.261Z,16.16
2022-09-16T14:53:38.271Z,15.90
2022-09-16T14:56:24.235Z,16.12
2022-09-16T14:59:13.930Z,16.05
2022-09-16T15:02:06.289Z,16.07
2022-09-16T15:04:56.583Z,15.05
2022-09-16T15:07:56.403Z,14.71
2022-09-16T15:10:52.969Z,14.02
2022-09-16T15:13:39.524Z,13.75
2022-09-16T15:16:25.866Z,13.26
2022-09-16T15:19:23.406Z,13.14
2022-09-16T15:22:14.315Z,13.11
2022-09-16T15:24:59.489Z,12.66
2022-09-16T15:27:44.872Z,12.49
2022-09-16T15:30:30.689Z,12.54
2022-09-16T15:33:51.209Z,12.40
2022-09-16T15:36:41.565Z,12.47
2022-09-16T15:39:26.634Z,12.61
2022-09-16T15:42:22.500Z,12.96
2022-09-16T15:45:16.264Z,13.17
2022-09-16T15:48:11.822Z,13.34
2022-09-16T15:51:26.963Z,13.28
2022-09-16T15:54:14.051Z,13.16
2022-09-16T15:57:19.866Z,13.19
2022-09-16T16:00:06.871Z,13.19
2022-09-16T16:02:57.253Z,13.01
2022-09-16T16:05:50.797Z,12.85
2022-09-16T16:08:43.933Z,12.80
2022-09-16T16:11:29.371Z,13.61
2022-09-16T16:14:14.306Z,13.82
2022-09-16T16:17:20.834Z,13.82
2022-09-16T16:20:06.320Z,13.71
2022-09-16T16:22:51.972Z,13.47
2022-09-16T16:25:37.283Z,13.46
2022-09-16T16:28:22.308Z,13.29
2022-09-16T16:31:17.308Z,13.16
2022-09-16T16:34:03.384Z,12.84
2022-09-16T16:36:48.761Z,12.50
2022-09-16T16:39:35.123Z,12.73
2022-09-16T16:42:20.841Z,12.97
2022-09-16T16:45:06.602Z,13.24
2022-09-16T16:47:51.848Z,13.13
2022-09-16T16:50:36.845Z,12.89
2022-09-16T16:53:21.639Z,12.86
2022-09-16T16:56:15.190Z,12.98
2022-09-16T16:59:01.120Z,12.99
2022-09-16T17:01:48.999Z,12.84
2022-09-16T17:04:34.440Z,12.68
2022-09-16T17:07:26.300Z,12.49
2022-09-16T17:10:12.411Z,12.59
2022-09-16T17:12:57.656Z,12.59
2022-09-16T17:15:43.115Z,12.66
2022-09-16T17:18:28.177Z,12.72
2022-09-16T17:21:19.208Z,12.82
2022-09-16T17:24:04.260Z,12.95
2022-09-16T17:26:49.584Z,13.04
2022-09-16T17:29:34.936Z,13.16
2022-09-16T17:32:19.935Z,13.09
2022-09-16T17:35:05.181Z,13.22
2022-09-16T17:37:50.794Z,13.16
2022-09-16T17:40:36.599Z,13.19
2022-09-16T17:43:21.483Z,13.27
2022-09-16T17:46:11.824Z,13.18
2022-09-16T17:49:02.019Z,13.26
2022-09-16T17:51:47.583Z,13.19
2022-09-16T17:54:32.669Z,13.17
2022-09-16T17:57:17.684Z,13.17
2022-09-16T18:00:04.924Z,13.07
2022-09-16T18:02:50.180Z,13.11
2022-09-16T18:05:36.669Z,13.04
2022-09-16T18:08:21.772Z,13.01
2022-09-16T18:11:08.833Z,12.93
2022-09-16T18:13:59.868Z,13.02
2022-09-16T18:16:44.626Z,13.04
2022-09-16T18:19:30.053Z,12.99
2022-09-16T18:22:15.105Z,13.04
2022-09-16T18:25:00.324Z,13.06
2022-09-16T18:27:45.471Z,13.10
2022-09-16T18:30:30.510Z,13.18
2022-09-16T18:33:15.831Z,13.21
2022-09-16T18:36:06.711Z,13.23
2022-09-16T18:38:53.332Z,13.18
2022-09-16T18:41:40.224Z,13.05
2022-09-16T18:44:25.390Z,12.84
2022-09-16T18:47:10.412Z,12.80
2022-09-16T18:49:55.808Z,12.71
2022-09-16T18:52:40.837Z,12.72
2022-09-16T18:55:26.115Z,12.65
2022-09-16T18:58:11.366Z,12.69
2022-09-16T19:00:56.375Z,12.61
2022-09-16T19:03:43.085Z,12.58
2022-09-16T19:06:30.708Z,12.66
2022-09-16T19:09:18.270Z,12.57
2022-09-16T19:12:04.408Z,12.50
2022-09-16T19:14:49.705Z,12.62
2022-09-16T19:17:34.656Z,12.52
2022-09-16T19:20:20.151Z,12.62
2022-09-16T19:23:05.440Z,12.49
2022-09-16T19:25:50.957Z,12.48
2022-09-16T19:28:35.968Z,12.40
2022-09-16T19:31:21.933Z,12.27
2022-09-16T19:34:07.345Z,12.05
2022-09-16T19:36:55.807Z,12.11
2022-09-16T19:39:41.021Z,11.83
2022-09-16T19:42:25.850Z,11.76
2022-09-16T19:45:11.223Z,11.67
2022-09-16T19:47:56.254Z,11.61
2022-09-16T19:50:45.684Z,11.69
2022-09-16T19:53:31.236Z,11.70
2022-09-16T19:56:25.445Z,11.61
2022-09-16T19:59:10.643Z,11.63
2022-09-16T20:01:55.471Z,11.73
2022-09-16T20:04:40.738Z,11.61
2022-09-16T20:07:25.446Z,11.51
2022-09-16T20:10:10.445Z,11.42
2022-09-16T20:12:59.230Z,11.38
2022-09-16T20:15:44.677Z,11.41
2022-09-16T20:18:31.664Z,11.30
2022-09-16T20:21:22.968Z,11.32
2022-09-16T20:24:14.198Z,11.22
2022-09-16T20:26:59.239Z,11.20
2022-09-16T20:29:44.124Z,11.24
2022-09-16T20:32:29.087Z,11.27
2022-09-16T20:35:14.023Z,11.10
2022-09-16T20:37:59.188Z,10.97
2022-09-16T20:40:44.163Z,10.94
2022-09-16T20:43:29.087Z,10.81
2022-09-16T20:46:20.579Z,10.82
2022-09-16T20:49:07.060Z,10.83
2022-09-16T20:51:52.009Z,10.87
2022-09-16T20:54:37.307Z,10.77
2022-09-16T20:57:22.061Z,10.80
2022-09-16T21:00:07.628Z,10.74
2022-09-16T21:02:53.365Z,10.83
2022-09-16T21:05:38.627Z,10.82
2022-09-16T21:08:23.465Z,10.73
2022-09-16T21:11:11.034Z,10.67
2022-09-16T21:13:58.974Z,10.69
2022-09-16T21:16:45.514Z,10.68
2022-09-16T21:19:30.683Z,10.74
2022-09-16T21:22:15.973Z,10.67
2022-09-16T21:25:01.009Z,10.74
2022-09-16T21:27:45.874Z,10.73
2022-09-16T21:30:30.764Z,10.66
2022-09-16T21:33:15.678Z,10.69
2022-09-16T21:36:02.258Z,10.65
2022-09-16T21:38:48.425Z,10.67
2022-09-16T21:41:33.515Z,10.79
2022-09-16T21:44:18.936Z,10.65
2022-09-16T21:47:04.384Z,10.61
2022-09-16T21:49:49.667Z,10.56
2022-09-16T21:52:34.585Z,10.58
2022-09-16T21:55:19.587Z,10.53
2022-09-16T21:58:04.291Z,10.63
2022-09-16T22:00:49.218Z,10.61
2022-09-16T22:03:35.408Z,10.51
2022-09-16T22:06:20.592Z,10.53
2022-09-16T22:09:07.449Z,10.52
2022-09-16T22:11:52.665Z,10.55
2022-09-16T22:14:37.959Z,10.51
2022-09-16T22:17:22.924Z,10.57
2022-09-16T22:20:08.165Z,10.57
2022-09-16T22:22:53.082Z,10.54
2022-09-16T22:25:38.907Z,10.58
2022-09-16T22:28:24.133Z,10.48
2022-09-16T22:31:12.623Z,10.47
2022-09-16T22:33:59.945Z,10.43
2022-09-16T22:36:45.256Z,10.51
2022-09-16T22:39:30.637Z,10.49
2022-09-16T22:42:15.572Z,10.45
2022-09-16T22:45:00.397Z,10.52
2022-09-16T22:47:45.355Z,10.54
2022-09-16T22:50:31.019Z,10.43
2022-09-16T22:53:16.025Z,10.50
2022-09-16T22:56:12.072Z,10.51
2022-09-16T22:58:58.522Z,10.47
2022-09-16T23:01:43.946Z,10.48
2022-09-16T23:04:28.853Z,10.53
2022-09-16T23:07:14.298Z,10.53
2022-09-16T23:09:59.189Z,10.61
2022-09-16T23:12:44.035Z,10.52
2022-09-16T23:15:29.135Z,10.52
2022-09-16T23:18:14.420Z,10.52
2022-09-16T23:21:01.964Z,10.55
2022-09-16T23:23:50.188Z,10.56
2022-09-16T23:26:37.787Z,10.62
2022-09-16T23:29:23.059Z,10.55
2022-09-16T23:32:08.366Z,10.53
2022-09-16T23:34:53.589Z,10.48
2022-09-16T23:37:38.756Z,10.49
2022-09-16T23:40:24.101Z,10.54
2022-09-16T23:43:09.569Z,10.50
2022-09-16T23:45:54.438Z,10.42
2022-09-16T23:48:39.857Z,10.52
2022-09-16T23:51:28.459Z,10.51
2022-09-16T23:54:14.667Z,10.46
2022-09-16T23:57:00.725Z,10.45
2022-09-16T23:59:45.712Z,10.54
